KAMN

Gratiot Community Airport

Alma, Michigan, USA
METAR KAMN 231055Z AUTO 19009KT 10SM SCT016 02/02 A2946 RMK AO2 T00210021
Observed Flight Rules
Jan-23 @ 10:55 UTC (57 minutes ago) Visual Flight Rules
Wind Visibility Clouds
190° at 9 knots 10 miles
  • Scattered at 1,600' AGL
Temperatures Readings
Current 2°C / 36°F
Dewpoint 2°C / 36°F
Humidity 100%
Altimeter 29.46" Hg
Pressure 998 hPa
Elevation 230
METAR KAMN 231055Z AUTO 19009KT 10SM SCT016 02/02 A2946 RMK AO2 T00210021
Observed Flight Rules
Jan-23 @ 10:55 UTC
(57 minutes ago)
VFR
Wind Visibility
190° at 9 knots 10 miles
Clouds
  • Scattered at 1,600' AGL
Temperature Dewpoint
2°C / 36°F 2°C / 36°F
Humidity Altimeter Pressure
100% 29.46" Hg 998 hPa